AUA66T LOWW-EPWA
Flight info
| Callsign | AUA66T |
|---|---|
| Flight time | N/A |
| Altitude | 35000 |
| Route | LEDVA3C/29 LEDVA DCT NETIR DCT LIGDI DCT KURON T709 KOTEK M866 LOGDA |
| Aircraft | A320/M-SDE3FGHIRWY/LB1 |
Departure
| Time | 2026-04-30 18:34 |
|---|---|
| Airport | Vienna International Airport (LOWW) |
Arrival
| Time | N/A |
|---|---|
| Airport | Warsaw Chopin Airport (EPWA) |
| Time | Latitude | Longitude | Altitude | Speed | Heading |
|---|---|---|---|---|---|
| 2026-04-30 18:06 | 48.11993 | 16.57040 | 609 ft | 0 kts | 26° |
| 2026-04-30 18:24 | 48.11992 | 16.57040 | 609 ft | 2 kts | 26° |
| 2026-04-30 18:25 | 48.11969 | 16.57023 | 614 ft | 4 kts | 31° |
| 2026-04-30 18:25 | 48.11951 | 16.56988 | 620 ft | 1 kts | 116° |
| 2026-04-30 18:28 | 48.11946 | 16.57004 | 622 ft | 5 kts | 116° |
| 2026-04-30 18:28 | 48.11886 | 16.57183 | 617 ft | 10 kts | 127° |
| 2026-04-30 18:29 | 48.11844 | 16.57255 | 618 ft | 9 kts | 124° |
| 2026-04-30 18:29 | 48.11670 | 16.57416 | 616 ft | 15 kts | 157° |
| 2026-04-30 18:30 | 48.11478 | 16.57450 | 609 ft | 17 kts | 203° |
| 2026-04-30 18:30 | 48.11283 | 16.57311 | 619 ft | 15 kts | 206° |
| 2026-04-30 18:31 | 48.11205 | 16.57306 | 616 ft | 12 kts | 141° |
| 2026-04-30 18:31 | 48.11103 | 16.57603 | 613 ft | 10 kts | 115° |
| 2026-04-30 18:32 | 48.11022 | 16.57633 | 618 ft | 0 kts | 207° |
| 2026-04-30 18:33 | 48.10994 | 16.57612 | 609 ft | 9 kts | 207° |
| 2026-04-30 18:33 | 48.10923 | 16.57505 | 613 ft | 0 kts | 297° |
| 2026-04-30 18:33 | 48.10925 | 16.57498 | 609 ft | 6 kts | 297° |
| 2026-04-30 18:34 | 48.11042 | 16.57141 | 622 ft | 76 kts | 296° |
| 2026-04-30 18:34 | 48.11854 | 16.54633 | 719 ft | 174 kts | 295° |
| 2026-04-30 18:34 | 48.12226 | 16.52942 | 1500 ft | 173 kts | 275° |
| 2026-04-30 18:35 | 48.12143 | 16.51118 | 2202 ft | 178 kts | 264° |
| 2026-04-30 18:35 | 48.11929 | 16.49298 | 2938 ft | 178 kts | 263° |
| 2026-04-30 18:35 | 48.11720 | 16.47441 | 3480 ft | 189 kts | 270° |
| 2026-04-30 18:36 | 48.12138 | 16.43199 | 4227 ft | 229 kts | 282° |
| 2026-04-30 18:36 | 48.12386 | 16.40710 | 4694 ft | 254 kts | 281° |
| 2026-04-30 18:36 | 48.12889 | 16.35276 | 6389 ft | 269 kts | 281° |
| 2026-04-30 18:37 | 48.13163 | 16.32415 | 7289 ft | 275 kts | 282° |
| 2026-04-30 18:37 | 48.13443 | 16.29583 | 8151 ft | 280 kts | 282° |
| 2026-04-30 18:37 | 48.13740 | 16.26677 | 9025 ft | 285 kts | 282° |
| 2026-04-30 18:37 | 48.14228 | 16.23844 | 9867 ft | 286 kts | 296° |
| 2026-04-30 18:38 | 48.15216 | 16.21240 | 10514 ft | 296 kts | 311° |
| 2026-04-30 18:38 | 48.16758 | 16.19014 | 10819 ft | 314 kts | 328° |
| 2026-04-30 18:38 | 48.18728 | 16.17427 | 11195 ft | 329 kts | 338° |
| 2026-04-30 18:38 | 48.20850 | 16.16235 | 11868 ft | 331 kts | 351° |
| 2026-04-30 18:39 | 48.23135 | 16.15976 | 12648 ft | 330 kts | 7° |
| 2026-04-30 18:39 | 48.25363 | 16.16737 | 13445 ft | 329 kts | 24° |
| 2026-04-30 18:39 | 48.27328 | 16.18470 | 14245 ft | 329 kts | 40° |
| 2026-04-30 18:39 | 48.29053 | 16.20730 | 14992 ft | 330 kts | 41° |
| 2026-04-30 18:40 | 48.30783 | 16.23017 | 15707 ft | 333 kts | 41° |
| 2026-04-30 18:40 | 48.32527 | 16.25322 | 16414 ft | 335 kts | 41° |
| 2026-04-30 18:40 | 48.34282 | 16.27638 | 17109 ft | 337 kts | 41° |
| 2026-04-30 18:40 | 48.36052 | 16.29971 | 17800 ft | 340 kts | 41° |
| 2026-04-30 18:41 | 48.37840 | 16.32323 | 18461 ft | 343 kts | 41° |
| 2026-04-30 18:41 | 48.39643 | 16.34693 | 19054 ft | 346 kts | 40° |
| 2026-04-30 18:41 | 48.41457 | 16.37079 | 19635 ft | 348 kts | 41° |
| 2026-04-30 18:41 | 48.43282 | 16.39482 | 20221 ft | 349 kts | 41° |
| 2026-04-30 18:42 | 48.45113 | 16.41895 | 20808 ft | 351 kts | 41° |
| 2026-04-30 18:42 | 48.48795 | 16.46773 | 21970 ft | 354 kts | 41° |
| 2026-04-30 18:42 | 48.50647 | 16.49231 | 22530 ft | 356 kts | 41° |
| 2026-04-30 18:45 | 48.69571 | 16.74469 | 27263 ft | 368 kts | 42° |
| 2026-04-30 18:45 | 48.71486 | 16.77044 | 27695 ft | 369 kts | 42° |
| 2026-04-30 18:45 | 48.73324 | 16.79756 | 28099 ft | 370 kts | 49° |
| 2026-04-30 18:46 | 48.74932 | 16.82812 | 28497 ft | 372 kts | 51° |
| 2026-04-30 18:46 | 48.76526 | 16.85904 | 28888 ft | 373 kts | 51° |
| 2026-04-30 18:46 | 48.78129 | 16.89003 | 29261 ft | 374 kts | 51° |
| 2026-04-30 18:46 | 48.79741 | 16.92110 | 29623 ft | 375 kts | 51° |
| 2026-04-30 18:47 | 48.81357 | 16.95225 | 29980 ft | 377 kts | 51° |
| 2026-04-30 18:47 | 48.82980 | 16.98354 | 30335 ft | 378 kts | 51° |
| 2026-04-30 18:47 | 48.84610 | 17.01499 | 30632 ft | 380 kts | 51° |
| 2026-04-30 18:47 | 48.86239 | 17.04645 | 30980 ft | 379 kts | 51° |
| 2026-04-30 18:48 | 48.87868 | 17.07797 | 31322 ft | 379 kts | 51° |
| 2026-04-30 18:48 | 48.89496 | 17.10954 | 31632 ft | 380 kts | 51° |
| 2026-04-30 18:48 | 48.91127 | 17.14122 | 31950 ft | 381 kts | 51° |
| 2026-04-30 18:48 | 48.92756 | 17.17296 | 32271 ft | 381 kts | 51° |
| 2026-04-30 18:49 | 48.94402 | 17.20508 | 32598 ft | 382 kts | 51° |
| 2026-04-30 18:49 | 48.96068 | 17.23760 | 32929 ft | 383 kts | 50° |
| 2026-04-30 18:49 | 48.97703 | 17.26954 | 33245 ft | 383 kts | 50° |
| 2026-04-30 18:49 | 48.99343 | 17.30157 | 33567 ft | 384 kts | 50° |
| 2026-04-30 18:50 | 49.00985 | 17.33367 | 33895 ft | 384 kts | 50° |
| 2026-04-30 18:50 | 49.02633 | 17.36593 | 34220 ft | 385 kts | 50° |
| 2026-04-30 18:50 | 49.04283 | 17.39825 | 34515 ft | 385 kts | 50° |
| 2026-04-30 18:50 | 49.05910 | 17.43015 | 34759 ft | 387 kts | 50° |
| 2026-04-30 18:51 | 49.07560 | 17.46255 | 34992 ft | 388 kts | 50° |
| 2026-04-30 18:51 | 49.09239 | 17.49558 | 35221 ft | 389 kts | 50° |
| 2026-04-30 18:51 | 49.10902 | 17.52837 | 35372 ft | 391 kts | 50° |
| 2026-04-30 18:52 | 49.14234 | 17.59417 | 35394 ft | 392 kts | 50° |
| 2026-04-30 18:52 | 49.17593 | 17.66059 | 35392 ft | 392 kts | 50° |
| 2026-04-30 18:53 | 49.20919 | 17.72657 | 35393 ft | 392 kts | 50° |
| 2026-04-30 18:53 | 49.24237 | 17.79264 | 35396 ft | 392 kts | 50° |
| 2026-04-30 18:54 | 49.27550 | 17.85874 | 35395 ft | 391 kts | 50° |
| 2026-04-30 18:54 | 49.30858 | 17.92481 | 35396 ft | 391 kts | 50° |
| 2026-04-30 18:55 | 49.34145 | 17.99066 | 35401 ft | 390 kts | 51° |
| 2026-04-30 18:55 | 49.39108 | 18.09037 | 35401 ft | 390 kts | 51° |
| 2026-04-30 18:56 | 49.44035 | 18.18972 | 35394 ft | 389 kts | 51° |
| 2026-04-30 18:57 | 49.48948 | 18.28921 | 35397 ft | 389 kts | 51° |
| 2026-04-30 18:57 | 49.52241 | 18.35610 | 35397 ft | 390 kts | 51° |
| 2026-04-30 18:58 | 49.57087 | 18.45475 | 35395 ft | 390 kts | 51° |
| 2026-04-30 18:59 | 49.61981 | 18.55490 | 35395 ft | 390 kts | 51° |
| 2026-04-30 19:00 | 49.68448 | 18.68787 | 35403 ft | 390 kts | 49° |